Time;durP1;ratioP1;P1;durP2;ratioP2;P2;SDS_P1;SDS_P2;PMS_P1;PMS_P2;Temp;Humidity;BMP_temperature;BMP_pressure;BME280_temperature;BME280_humidity;BME280_pressure;Samples;Min_cycle;Max_cycle;Signal;HPM_P1;HPM_P2
2023/07/08 00:00:37;;;;;;;6.83;5.97;;;;;;;;;;736669;189;921826;-60
2023/07/08 00:03:03;;;;;;;6.23;5.30;;;;;;;;;;735349;189;871678;-59
2023/07/08 00:05:29;;;;;;;6.62;5.57;;;;;;;;;;713338;194;916510;-60
2023/07/08 00:07:55;;;;;;;7.23;5.50;;;;;;;;;;715857;192;930454;-59
2023/07/08 00:10:21;;;;;;;9.10;6.80;;;;;;;;;;736669;187;916268;-59
2023/07/08 00:12:46;;;;;;;8.97;5.73;;;;;;;;;;730159;189;917838;-60
2023/07/08 00:15:12;;;;;;;9.50;6.83;;;;;;;;;;746471;187;919988;-58
2023/07/08 00:17:38;;;;;;;7.43;5.90;;;;;;;;;;734288;187;920096;-61
2023/07/08 00:20:05;;;;;;;6.43;5.53;;;;;;;;;;736294;187;924769;-58
2023/07/08 00:22:34;;;;;;;9.37;6.57;;;;;;;;;;739187;189;915137;-60
2023/07/08 00:24:57;;;;;;;9.63;6.17;;;;;;;;;;735796;188;854497;-59
2023/07/08 00:27:23;;;;;;;7.63;6.03;;;;;;;;;;713189;195;918811;-60
2023/07/08 00:29:49;;;;;;;5.90;5.20;;;;;;;;;;713988;195;919112;-60
2023/07/08 00:32:15;;;;;;;8.43;6.60;;;;;;;;;;732213;187;919225;-60
2023/07/08 00:34:41;;;;;;;9.07;6.60;;;;;;;;;;742910;187;922379;-58
2023/07/08 00:37:06;;;;;;;7.72;6.25;;;;;;;;;;738083;188;919815;-59
2023/07/08 00:39:32;;;;;;;8.43;7.10;;;;;;;;;;742243;188;919832;-60
2023/07/08 00:41:58;;;;;;;10.40;7.33;;;;;;;;;;734332;187;913521;-59
2023/07/08 00:44:24;;;;;;;10.53;7.30;;;;;;;;;;735604;189;918966;-60
2023/07/08 00:46:51;;;;;;;9.07;6.67;;;;;;;;;;736833;188;817587;-60
2023/07/08 00:49:17;;;;;;;12.57;7.50;;;;;;;;;;727980;187;918542;-60
2023/07/08 00:51:43;;;;;;;10.77;7.23;;;;;;;;;;731428;188;919444;-58
2023/07/08 00:54:11;;;;;;;11.82;7.95;;;;;;;;;;737518;188;921477;-60
2023/07/08 00:56:39;;;;;;;11.13;7.57;;;;;;;;;;732162;189;839532;-59
2023/07/08 00:59:04;;;;;;;8.20;7.03;;;;;;;;;;735983;187;861320;-60
2023/07/08 01:01:30;;;;;;;10.43;7.63;;;;;;;;;;733798;189;918176;-60
2023/07/08 01:03:56;;;;;;;13.40;6.63;;;;;;;;;;742524;187;940924;-59
2023/07/08 01:06:22;;;;;;;7.32;6.50;;;;;;;;;;735388;187;918417;-60
2023/07/08 01:08:50;;;;;;;8.87;7.00;;;;;;;;;;737169;188;819099;-60
2023/07/08 01:11:14;;;;;;;8.83;7.50;;;;;;;;;;738789;189;850956;-60
2023/07/08 01:13:40;;;;;;;12.57;8.67;;;;;;;;;;738740;187;919167;-59
2023/07/08 01:16:05;;;;;;;11.40;8.00;;;;;;;;;;736214;187;815735;-60
2023/07/08 01:18:31;;;;;;;10.47;7.47;;;;;;;;;;735045;189;853787;-61
2023/07/08 01:20:57;;;;;;;14.77;7.97;;;;;;;;;;731909;191;917805;-60
2023/07/08 01:23:24;;;;;;;12.13;8.90;;;;;;;;;;712211;195;918573;-60
2023/07/08 01:25:49;;;;;;;11.40;8.80;;;;;;;;;;720058;191;917280;-61
2023/07/08 01:28:15;;;;;;;13.03;9.17;;;;;;;;;;744082;187;856370;-60
2023/07/08 01:30:40;;;;;;;8.93;6.93;;;;;;;;;;734710;189;941348;-59
2023/07/08 01:33:06;;;;;;;10.20;6.53;;;;;;;;;;738512;188;887101;-60
2023/07/08 01:35:32;;;;;;;10.73;5.80;;;;;;;;;;738069;188;877237;-59
2023/07/08 01:37:58;;;;;;;12.57;7.00;;;;;;;;;;732367;188;919372;-61
2023/07/08 01:40:25;;;;;;;8.80;6.03;;;;;;;;;;735565;186;919160;-60
2023/07/08 01:42:50;;;;;;;10.63;6.73;;;;;;;;;;738835;186;918792;-59
2023/07/08 01:45:16;;;;;;;7.87;6.30;;;;;;;;;;730289;192;918268;-61
2023/07/08 01:47:42;;;;;;;8.57;6.33;;;;;;;;;;743684;187;919009;-60
2023/07/08 01:50:08;;;;;;;9.60;6.37;;;;;;;;;;735286;189;919499;-60
2023/07/08 01:52:34;;;;;;;7.60;6.10;;;;;;;;;;719395;194;919289;-60
2023/07/08 01:55:00;;;;;;;9.50;6.77;;;;;;;;;;716099;194;910508;-61
2023/07/08 01:57:26;;;;;;;8.53;6.53;;;;;;;;;;715791;194;913289;-60
2023/07/08 01:59:52;;;;;;;8.30;7.10;;;;;;;;;;741424;188;915993;-60
2023/07/08 02:02:18;;;;;;;9.30;7.20;;;;;;;;;;735947;188;916563;-60
2023/07/08 02:04:43;;;;;;;12.43;7.37;;;;;;;;;;710727;194;919461;-60
2023/07/08 02:07:09;;;;;;;9.43;7.67;;;;;;;;;;730981;188;918025;-61
2023/07/08 02:09:35;;;;;;;11.40;7.87;;;;;;;;;;741082;188;865105;-61
2023/07/08 02:12:01;;;;;;;9.50;7.43;;;;;;;;;;740370;187;922735;-60
2023/07/08 02:14:27;;;;;;;10.20;8.13;;;;;;;;;;733782;188;920482;-61
2023/07/08 02:16:53;;;;;;;11.63;7.60;;;;;;;;;;742591;187;920161;-61
2023/07/08 02:19:19;;;;;;;8.60;6.30;;;;;;;;;;736688;187;819009;-60
2023/07/08 02:21:44;;;;;;;8.27;6.40;;;;;;;;;;733839;188;818553;-60
2023/07/08 02:24:10;;;;;;;10.17;6.60;;;;;;;;;;741250;189;919623;-59
2023/07/08 02:26:36;;;;;;;10.50;8.10;;;;;;;;;;719143;194;919731;-59
2023/07/08 02:29:02;;;;;;;9.47;6.30;;;;;;;;;;720600;191;918800;-61
2023/07/08 02:31:28;;;;;;;8.37;5.93;;;;;;;;;;722909;191;916633;-59
2023/07/08 02:33:53;;;;;;;8.57;6.53;;;;;;;;;;717838;190;919521;-60
2023/07/08 02:36:19;;;;;;;18.70;9.33;;;;;;;;;;716987;191;912265;-60
2023/07/08 02:38:45;;;;;;;15.80;7.23;;;;;;;;;;713920;194;919944;-60
2023/07/08 02:41:11;;;;;;;11.80;6.23;;;;;;;;;;726083;194;919076;-59
2023/07/08 02:43:37;;;;;;;9.00;6.73;;;;;;;;;;729645;189;921374;-60
2023/07/08 02:46:03;;;;;;;8.70;6.63;;;;;;;;;;733496;190;917285;-60
2023/07/08 02:48:29;;;;;;;8.67;7.80;;;;;;;;;;737635;190;919455;-60
2023/07/08 02:50:59;;;;;;;16.87;8.63;;;;;;;;;;712482;195;919401;-60
2023/07/08 02:53:25;;;;;;;16.80;6.50;;;;;;;;;;726790;191;919142;-60
2023/07/08 02:55:51;;;;;;;8.53;7.27;;;;;;;;;;712229;196;920142;-59
2023/07/08 02:58:17;;;;;;;11.10;8.10;;;;;;;;;;727597;192;918605;-60
2023/07/08 03:00:43;;;;;;;13.43;7.75;;;;;;;;;;743378;187;919229;-60
2023/07/08 03:03:08;;;;;;;13.00;8.87;;;;;;;;;;736149;187;918388;-61
2023/07/08 03:05:34;;;;;;;14.30;9.40;;;;;;;;;;741225;188;919263;-60
2023/07/08 03:08:00;;;;;;;13.77;8.43;;;;;;;;;;735716;187;923192;-62
2023/07/08 03:10:26;;;;;;;10.80;9.00;;;;;;;;;;733998;187;874696;-63
2023/07/08 03:12:52;;;;;;;13.53;7.80;;;;;;;;;;739246;188;912289;-60
2023/07/08 03:15:18;;;;;;;12.77;9.30;;;;;;;;;;737694;187;893643;-60
2023/07/08 03:17:43;;;;;;;16.30;8.60;;;;;;;;;;741893;187;822824;-60
2023/07/08 03:20:10;;;;;;;8.88;7.97;;;;;;;;;;735509;188;818381;-60
2023/07/08 03:22:36;;;;;;;10.60;7.43;;;;;;;;;;715348;195;916607;-60
2023/07/08 03:25:02;;;;;;;12.15;8.60;;;;;;;;;;725779;191;921479;-59
2023/07/08 03:27:27;;;;;;;13.53;7.77;;;;;;;;;;740773;187;918910;-60
2023/07/08 03:29:53;;;;;;;13.70;7.37;;;;;;;;;;741686;188;919401;-60
2023/07/08 03:32:19;;;;;;;13.97;8.13;;;;;;;;;;736146;187;916842;-60
2023/07/08 03:34:45;;;;;;;10.20;8.53;;;;;;;;;;730227;187;919281;-60
2023/07/08 03:37:11;;;;;;;17.23;10.97;;;;;;;;;;736479;189;919414;-60
2023/07/08 03:39:37;;;;;;;12.97;8.93;;;;;;;;;;740115;188;919350;-59
2023/07/08 03:42:03;;;;;;;12.20;9.07;;;;;;;;;;732735;189;919132;-61
2023/07/08 03:44:29;;;;;;;11.12;8.82;;;;;;;;;;740934;189;918939;-60
2023/07/08 03:46:55;;;;;;;11.00;9.00;;;;;;;;;;732649;189;917743;-62
2023/07/08 03:49:23;;;;;;;14.43;10.10;;;;;;;;;;739577;187;918430;-61
2023/07/08 03:51:47;;;;;;;12.37;8.80;;;;;;;;;;740769;187;908460;-61
2023/07/08 03:54:13;;;;;;;10.90;8.57;;;;;;;;;;740154;187;914863;-63
2023/07/08 03:56:39;;;;;;;10.98;9.32;;;;;;;;;;735494;187;933740;-61
2023/07/08 03:59:04;;;;;;;13.73;9.27;;;;;;;;;;740498;187;919289;-61
2023/07/08 04:01:30;;;;;;;10.43;7.80;;;;;;;;;;742506;187;855529;-60
2023/07/08 04:03:56;;;;;;;13.33;9.27;;;;;;;;;;733248;188;918916;-61
2023/07/08 04:06:22;;;;;;;12.67;9.50;;;;;;;;;;739224;187;905995;-60
2023/07/08 04:08:48;;;;;;;18.43;9.60;;;;;;;;;;741811;187;916264;-64
2023/07/08 04:11:14;;;;;;;15.47;9.27;;;;;;;;;;736622;188;917084;-60
2023/07/08 04:13:39;;;;;;;11.50;9.03;;;;;;;;;;713542;195;917242;-61
2023/07/08 04:16:05;;;;;;;13.17;9.67;;;;;;;;;;732807;188;921266;-62
2023/07/08 04:18:31;;;;;;;10.17;8.90;;;;;;;;;;729812;192;918961;-61
2023/07/08 04:20:57;;;;;;;14.50;9.10;;;;;;;;;;713031;194;921775;-61
2023/07/08 04:23:23;;;;;;;11.48;8.60;;;;;;;;;;712950;194;920342;-61
2023/07/08 04:25:49;;;;;;;9.50;8.50;;;;;;;;;;743346;187;913243;-62
2023/07/08 04:28:15;;;;;;;15.03;9.83;;;;;;;;;;737767;188;913662;-61
2023/07/08 04:30:41;;;;;;;16.30;8.57;;;;;;;;;;738058;188;921241;-61
2023/07/08 04:33:07;;;;;;;10.73;7.93;;;;;;;;;;744098;187;818703;-61
2023/07/08 04:35:33;;;;;;;12.27;8.63;;;;;;;;;;735935;186;820593;-61
2023/07/08 04:37:58;;;;;;;12.47;7.83;;;;;;;;;;737219;188;922359;-62
2023/07/08 04:40:24;;;;;;;9.20;7.77;;;;;;;;;;710634;195;913151;-62
2023/07/08 04:42:51;;;;;;;12.02;7.40;;;;;;;;;;735701;188;919216;-62
2023/07/08 04:45:16;;;;;;;15.63;7.00;;;;;;;;;;727361;188;919068;-62
2023/07/08 04:47:43;;;;;;;8.80;7.20;;;;;;;;;;737930;187;918478;-62
2023/07/08 04:50:09;;;;;;;8.90;7.00;;;;;;;;;;740406;188;919475;-62
2023/07/08 04:52:35;;;;;;;10.13;7.70;;;;;;;;;;739557;188;817898;-63
2023/07/08 04:55:00;;;;;;;9.10;6.63;;;;;;;;;;736528;189;918374;-63
2023/07/08 04:57:26;;;;;;;9.20;7.30;;;;;;;;;;740594;187;919568;-62
2023/07/08 04:59:51;;;;;;;9.90;7.60;;;;;;;;;;733110;188;900710;-62
2023/07/08 05:02:17;;;;;;;8.80;7.00;;;;;;;;;;732734;189;934532;-61
2023/07/08 05:04:43;;;;;;;8.80;7.30;;;;;;;;;;737564;189;875390;-62
2023/07/08 05:07:09;;;;;;;12.60;6.50;;;;;;;;;;741489;187;907355;-62
2023/07/08 05:09:35;;;;;;;8.77;7.10;;;;;;;;;;744776;187;916645;-61
2023/07/08 05:12:01;;;;;;;12.03;7.17;;;;;;;;;;735502;187;920671;-62
2023/07/08 05:14:27;;;;;;;11.17;6.70;;;;;;;;;;741466;187;941528;-64
2023/07/08 05:16:52;;;;;;;9.77;6.33;;;;;;;;;;744514;186;917270;-62
2023/07/08 05:19:21;;;;;;;9.45;6.53;;;;;;;;;;727651;187;921296;-63
2023/07/08 05:21:45;;;;;;;9.97;7.50;;;;;;;;;;748753;187;820282;-62
2023/07/08 05:24:10;;;;;;;10.27;6.60;;;;;;;;;;739000;187;920593;-61
2023/07/08 05:26:36;;;;;;;9.10;6.87;;;;;;;;;;734995;189;918546;-63
2023/07/08 05:29:02;;;;;;;11.73;7.60;;;;;;;;;;739241;189;933824;-62
2023/07/08 05:31:28;;;;;;;6.90;5.80;;;;;;;;;;731364;188;916140;-61
2023/07/08 05:33:54;;;;;;;9.70;7.00;;;;;;;;;;732587;188;918362;-61
2023/07/08 05:36:20;;;;;;;8.75;6.45;;;;;;;;;;733954;188;915793;-62
2023/07/08 05:38:46;;;;;;;9.83;6.20;;;;;;;;;;721449;194;915555;-63
2023/07/08 05:41:12;;;;;;;8.10;6.30;;;;;;;;;;734690;188;913412;-62
2023/07/08 05:43:37;;;;;;;8.07;6.77;;;;;;;;;;737665;189;918361;-62
2023/07/08 05:46:03;;;;;;;10.07;6.70;;;;;;;;;;739837;188;909812;-63
2023/07/08 05:48:29;;;;;;;8.97;5.70;;;;;;;;;;738164;188;921772;-62
2023/07/08 05:50:55;;;;;;;8.43;5.80;;;;;;;;;;730568;189;922181;-61
2023/07/08 05:53:21;;;;;;;8.83;6.43;;;;;;;;;;735813;189;918172;-61
2023/07/08 05:55:47;;;;;;;8.60;5.83;;;;;;;;;;737068;187;918143;-61
2023/07/08 05:58:15;;;;;;;7.00;6.30;;;;;;;;;;732588;188;919315;-60
2023/07/08 06:00:38;;;;;;;6.90;6.00;;;;;;;;;;721630;191;919107;-62
2023/07/08 06:03:04;;;;;;;7.50;5.60;;;;;;;;;;745766;187;890387;-61
2023/07/08 06:05:32;;;;;;;8.10;5.63;;;;;;;;;;735264;188;915332;-60
2023/07/08 06:07:56;;;;;;;8.73;6.03;;;;;;;;;;734507;188;919283;-63
2023/07/08 06:10:22;;;;;;;7.07;5.03;;;;;;;;;;740869;188;928271;-61
2023/07/08 06:12:48;;;;;;;6.37;5.20;;;;;;;;;;738383;189;912031;-62
2023/07/08 06:15:13;;;;;;;7.83;5.40;;;;;;;;;;735407;189;918536;-61
2023/07/08 06:17:39;;;;;;;6.60;5.90;;;;;;;;;;731132;191;815777;-62
2023/07/08 06:20:06;;;;;;;7.77;5.37;;;;;;;;;;712051;195;918469;-63
2023/07/08 06:22:31;;;;;;;9.10;4.57;;;;;;;;;;732533;187;918861;-63
2023/07/08 06:24:57;;;;;;;7.20;5.70;;;;;;;;;;734790;189;919160;-62
2023/07/08 06:27:24;;;;;;;6.50;5.30;;;;;;;;;;730576;190;813161;-62
2023/07/08 06:29:49;;;;;;;6.77;4.70;;;;;;;;;;738602;186;817975;-62
2023/07/08 06:32:15;;;;;;;6.50;4.27;;;;;;;;;;741511;187;919055;-62
2023/07/08 06:34:41;;;;;;;8.30;5.23;;;;;;;;;;747493;187;715095;-62
2023/07/08 06:37:06;;;;;;;11.23;5.30;;;;;;;;;;741585;187;817491;-61
2023/07/08 06:39:32;;;;;;;5.68;4.43;;;;;;;;;;737373;187;933443;-62
2023/07/08 06:41:58;;;;;;;8.77;4.57;;;;;;;;;;741202;188;916437;-62
2023/07/08 06:44:25;;;;;;;8.37;4.27;;;;;;;;;;733098;188;919177;-62
2023/07/08 06:46:50;;;;;;;7.90;4.80;;;;;;;;;;733793;188;921443;-63
2023/07/08 06:49:17;;;;;;;6.03;4.45;;;;;;;;;;735327;188;916072;-62
2023/07/08 06:51:42;;;;;;;8.03;4.60;;;;;;;;;;713674;194;914882;-62
2023/07/08 06:54:11;;;;;;;5.93;5.00;;;;;;;;;;724276;192;918596;-60
2023/07/08 06:56:34;;;;;;;7.00;4.20;;;;;;;;;;724907;191;919317;-62
2023/07/08 06:59:00;;;;;;;5.80;4.10;;;;;;;;;;730647;191;918347;-63
2023/07/08 07:01:25;;;;;;;9.50;4.60;;;;;;;;;;711587;195;914521;-62
2023/07/08 07:03:51;;;;;;;9.63;4.53;;;;;;;;;;735121;186;815998;-64
2023/07/08 07:06:17;;;;;;;8.43;3.97;;;;;;;;;;744662;187;885167;-62
2023/07/08 07:08:43;;;;;;;7.00;3.87;;;;;;;;;;720387;191;918374;-62
2023/07/08 07:11:09;;;;;;;5.87;4.10;;;;;;;;;;720351;194;919353;-61
2023/07/08 07:13:35;;;;;;;6.30;4.10;;;;;;;;;;746836;187;918581;-62
2023/07/08 07:16:00;;;;;;;9.47;5.10;;;;;;;;;;734857;187;922345;-62
2023/07/08 07:18:26;;;;;;;6.63;4.40;;;;;;;;;;733515;188;921170;-62
2023/07/08 07:20:52;;;;;;;12.63;3.67;;;;;;;;;;734355;189;914615;-62
2023/07/08 07:23:18;;;;;;;6.43;3.97;;;;;;;;;;736972;189;920320;-60
2023/07/08 07:25:45;;;;;;;8.23;5.00;;;;;;;;;;739556;187;805295;-60
2023/07/08 07:28:10;;;;;;;6.60;3.70;;;;;;;;;;738210;187;815429;-62
2023/07/08 07:30:35;;;;;;;5.17;3.63;;;;;;;;;;740413;188;918484;-61
2023/07/08 07:33:01;;;;;;;6.87;4.33;;;;;;;;;;735761;189;921534;-61
2023/07/08 07:35:27;;;;;;;4.40;3.23;;;;;;;;;;736168;189;919276;-62
2023/07/08 07:37:53;;;;;;;5.30;4.00;;;;;;;;;;730186;190;916683;-62
2023/07/08 07:40:19;;;;;;;8.17;4.10;;;;;;;;;;712918;195;908581;-62
2023/07/08 07:42:45;;;;;;;5.80;3.60;;;;;;;;;;733509;190;839012;-61
2023/07/08 07:45:11;;;;;;;5.13;3.07;;;;;;;;;;713565;194;919059;-60
2023/07/08 07:47:36;;;;;;;5.80;3.50;;;;;;;;;;726814;190;918564;-62
2023/07/08 07:50:05;;;;;;;4.90;3.17;;;;;;;;;;723480;191;918800;-61
2023/07/08 07:52:31;;;;;;;7.27;3.53;;;;;;;;;;713877;194;919066;-61
2023/07/08 07:54:56;;;;;;;5.70;3.30;;;;;;;;;;742832;188;920077;-61
2023/07/08 07:57:22;;;;;;;5.13;3.07;;;;;;;;;;735142;188;919883;-62
2023/07/08 07:59:48;;;;;;;5.40;3.13;;;;;;;;;;717771;194;918442;-60
2023/07/08 08:02:14;;;;;;;3.90;2.77;;;;;;;;;;750058;187;918541;-61
2023/07/08 08:04:40;;;;;;;4.47;3.00;;;;;;;;;;737401;188;919139;-60
2023/07/08 08:07:06;;;;;;;4.77;2.80;;;;;;;;;;738223;188;814204;-61
2023/07/08 08:09:31;;;;;;;4.13;2.70;;;;;;;;;;735974;188;908302;-62
2023/07/08 08:11:57;;;;;;;6.03;3.17;;;;;;;;;;745461;183;837341;-61
2023/07/08 08:14:23;;;;;;;4.07;2.87;;;;;;;;;;734694;187;910300;-60
2023/07/08 08:16:49;;;;;;;4.95;3.87;;;;;;;;;;733722;187;918591;-62
2023/07/08 08:19:15;;;;;;;7.30;2.97;;;;;;;;;;739813;188;924091;-61
2023/07/08 08:21:41;;;;;;;8.70;2.90;;;;;;;;;;713967;191;918902;-63
2023/07/08 08:24:06;;;;;;;3.95;3.00;;;;;;;;;;720663;191;921338;-63
2023/07/08 08:26:32;;;;;;;4.57;2.60;;;;;;;;;;725795;191;836006;-61
2023/07/08 08:28:58;;;;;;;6.13;3.77;;;;;;;;;;737244;188;919616;-63
2023/07/08 08:31:24;;;;;;;3.72;2.92;;;;;;;;;;734077;187;917343;-63
2023/07/08 08:33:51;;;;;;;4.83;3.20;;;;;;;;;;728203;192;919522;-62
2023/07/08 08:36:17;;;;;;;4.50;2.67;;;;;;;;;;720490;192;915503;-61
2023/07/08 08:38:43;;;;;;;5.73;3.00;;;;;;;;;;730660;188;919805;-63
2023/07/08 08:41:10;;;;;;;5.00;3.27;;;;;;;;;;733689;187;917798;-61
2023/07/08 08:43:36;;;;;;;5.73;3.47;;;;;;;;;;740544;188;923653;-61
2023/07/08 08:46:04;;;;;;;4.30;2.80;;;;;;;;;;741436;187;920713;-61
2023/07/08 08:48:30;;;;;;;3.83;2.97;;;;;;;;;;735700;187;920085;-60
2023/07/08 08:50:56;;;;;;;4.87;3.23;;;;;;;;;;744419;186;866307;-62
2023/07/08 08:53:22;;;;;;;6.23;3.53;;;;;;;;;;729924;189;895121;-61
2023/07/08 08:55:48;;;;;;;4.67;2.87;;;;;;;;;;736649;187;917821;-62
2023/07/08 08:58:14;;;;;;;4.60;3.20;;;;;;;;;;733912;189;918760;-61
2023/07/08 09:00:42;;;;;;;4.70;3.20;;;;;;;;;;749716;187;812900;-61
2023/07/08 09:03:08;;;;;;;6.00;2.93;;;;;;;;;;737493;188;941798;-63
2023/07/08 09:05:34;;;;;;;4.97;2.90;;;;;;;;;;733842;186;916978;-61
2023/07/08 09:08:01;;;;;;;8.50;3.50;;;;;;;;;;720669;194;920173;-60
2023/07/08 09:10:27;;;;;;;6.30;3.33;;;;;;;;;;724246;191;923401;-62
2023/07/08 09:12:53;;;;;;;5.93;3.20;;;;;;;;;;727411;189;917820;-61
2023/07/08 09:15:19;;;;;;;5.50;3.40;;;;;;;;;;732580;189;919183;-61
2023/07/08 09:17:45;;;;;;;5.00;2.77;;;;;;;;;;715454;194;918724;-62
2023/07/08 09:20:13;;;;;;;4.63;3.43;;;;;;;;;;734414;189;892991;-62
2023/07/08 09:22:54;;;;;;;4.23;2.70;;;;;;;;;;715605;192;943093;-64
2023/07/08 09:25:20;;;;;;;7.00;2.97;;;;;;;;;;717201;192;919624;-63
2023/07/08 09:27:46;;;;;;;4.63;3.10;;;;;;;;;;739672;186;825841;-63
2023/07/08 09:30:13;;;;;;;4.45;2.70;;;;;;;;;;737399;187;916695;-63
2023/07/08 09:32:39;;;;;;;5.10;2.77;;;;;;;;;;733614;189;920059;-62
2023/07/08 09:35:06;;;;;;;4.63;2.90;;;;;;;;;;739570;189;921487;-62
2023/07/08 09:37:32;;;;;;;4.33;2.97;;;;;;;;;;738545;189;919913;-63
2023/07/08 09:39:58;;;;;;;3.80;2.63;;;;;;;;;;737565;189;819388;-62
2023/07/08 09:42:24;;;;;;;4.10;3.03;;;;;;;;;;716054;194;920415;-62
2023/07/08 09:44:50;;;;;;;5.23;3.20;;;;;;;;;;744811;187;919152;-62
2023/07/08 09:47:20;;;;;;;4.25;3.20;;;;;;;;;;732629;188;920140;-62
2023/07/08 09:49:46;;;;;;;4.37;3.00;;;;;;;;;;734921;189;921084;-63
2023/07/08 09:52:11;;;;;;;5.10;3.13;;;;;;;;;;740494;189;917627;-64
2023/07/08 09:54:37;;;;;;;4.07;3.00;;;;;;;;;;708301;195;919605;-63
2023/07/08 09:57:04;;;;;;;5.70;3.10;;;;;;;;;;732166;188;950211;-62
2023/07/08 09:59:32;;;;;;;4.73;3.00;;;;;;;;;;729634;188;912697;-62
2023/07/08 10:01:59;;;;;;;5.77;3.50;;;;;;;;;;734024;188;913063;-63
2023/07/08 10:04:25;;;;;;;4.10;2.80;;;;;;;;;;740521;187;811623;-63
2023/07/08 10:06:53;;;;;;;6.63;3.63;;;;;;;;;;737718;187;807654;-62
2023/07/08 10:09:19;;;;;;;4.53;2.97;;;;;;;;;;743478;187;909040;-62
2023/07/08 10:11:43;;;;;;;5.80;3.90;;;;;;;;;;737074;187;912297;-62
2023/07/08 10:14:09;;;;;;;5.37;3.30;;;;;;;;;;738947;189;919393;-64
2023/07/08 10:16:34;;;;;;;4.77;3.10;;;;;;;;;;735380;188;911728;-63
2023/07/08 10:19:00;;;;;;;4.40;2.90;;;;;;;;;;739458;187;908050;-62
2023/07/08 10:21:41;;;;;;;4.90;3.30;;;;;;;;;;739392;188;919674;-63
2023/07/08 10:24:19;;;;;;;5.10;3.63;;;;;;;;;;736240;188;905562;-64
2023/07/08 10:26:45;;;;;;;5.33;3.40;;;;;;;;;;718098;191;921601;-64
2023/07/08 10:29:12;;;;;;;4.03;2.80;;;;;;;;;;721778;193;915530;-63
2023/07/08 10:31:39;;;;;;;7.43;3.27;;;;;;;;;;718017;194;916558;-64
2023/07/08 10:34:07;;;;;;;5.23;3.00;;;;;;;;;;717276;193;920186;-64
2023/07/08 10:36:37;;;;;;;7.47;3.20;;;;;;;;;;737044;187;927332;-64
2023/07/08 10:39:09;;;;;;;5.70;3.30;;;;;;;;;;741623;188;919400;-63
2023/07/08 10:41:41;;;;;;;5.13;2.93;;;;;;;;;;740226;185;918631;-63
2023/07/08 10:44:08;;;;;;;4.20;3.17;;;;;;;;;;741392;185;920683;-63
2023/07/08 10:46:34;;;;;;;6.17;3.77;;;;;;;;;;739215;187;919356;-64
2023/07/08 10:49:00;;;;;;;4.07;3.10;;;;;;;;;;736781;189;919302;-63
2023/07/08 10:51:31;;;;;;;5.17;2.80;;;;;;;;;;713314;194;919189;-64
2023/07/08 10:53:57;;;;;;;4.37;3.10;;;;;;;;;;716914;194;920639;-63
2023/07/08 10:56:23;;;;;;;5.33;3.33;;;;;;;;;;739173;187;920126;-63
2023/07/08 10:58:49;;;;;;;4.03;2.80;;;;;;;;;;734924;189;920933;-63
2023/07/08 11:01:26;;;;;;;3.63;2.87;;;;;;;;;;735314;187;821094;-63
2023/07/08 11:04:11;;;;;;;5.10;2.67;;;;;;;;;;739750;187;1046172;-64
2023/07/08 11:06:49;;;;;;;4.13;2.83;;;;;;;;;;734766;189;917355;-62
2023/07/08 11:09:18;;;;;;;4.53;2.97;;;;;;;;;;733714;186;917201;-64
2023/07/08 11:11:46;;;;;;;7.60;3.07;;;;;;;;;;733986;188;918451;-65
2023/07/08 11:14:16;;;;;;;4.53;3.07;;;;;;;;;;740437;188;919541;-65
2023/07/08 11:16:44;;;;;;;5.30;3.37;;;;;;;;;;719418;194;914415;-64
2023/07/08 11:19:11;;;;;;;6.40;3.30;;;;;;;;;;721308;191;923667;-65
2023/07/08 11:21:38;;;;;;;7.93;3.37;;;;;;;;;;746070;187;919501;-63
2023/07/08 11:24:07;;;;;;;6.00;3.60;;;;;;;;;;743869;188;918777;-64
2023/07/08 11:26:32;;;;;;;7.80;3.10;;;;;;;;;;742094;187;919336;-64
2023/07/08 11:28:58;;;;;;;5.30;3.57;;;;;;;;;;728357;189;919113;-65
2023/07/08 11:31:24;;;;;;;4.13;3.00;;;;;;;;;;740818;187;818536;-64
2023/07/08 11:33:50;;;;;;;4.77;3.23;;;;;;;;;;740760;186;921162;-64
2023/07/08 11:36:16;;;;;;;4.60;3.37;;;;;;;;;;738681;187;921466;-65
2023/07/08 11:38:45;;;;;;;4.57;3.50;;;;;;;;;;734076;189;920105;-65
2023/07/08 11:41:11;;;;;;;4.20;3.17;;;;;;;;;;741603;188;816730;-63
2023/07/08 11:43:37;;;;;;;4.83;3.40;;;;;;;;;;732743;188;919067;-65
2023/07/08 11:46:03;;;;;;;4.70;3.20;;;;;;;;;;737865;188;814847;-63
2023/07/08 11:48:30;;;;;;;4.63;3.57;;;;;;;;;;720190;194;918333;-63
2023/07/08 11:50:56;;;;;;;4.10;2.80;;;;;;;;;;729050;188;942629;-63
2023/07/08 11:53:27;;;;;;;8.87;3.10;;;;;;;;;;727177;188;935581;-64
2023/07/08 11:55:56;;;;;;;4.53;3.10;;;;;;;;;;733872;187;918472;-63
2023/07/08 11:58:24;;;;;;;4.30;3.40;;;;;;;;;;742322;189;912746;-64
2023/07/08 12:00:52;;;;;;;7.60;3.20;;;;;;;;;;736554;188;918652;-63
2023/07/08 12:03:18;;;;;;;6.27;3.23;;;;;;;;;;736455;187;921140;-64
2023/07/08 12:05:44;;;;;;;4.30;3.13;;;;;;;;;;731430;189;921597;-64
2023/07/08 12:08:12;;;;;;;5.03;3.10;;;;;;;;;;744983;188;920382;-63
2023/07/08 12:10:38;;;;;;;4.33;3.23;;;;;;;;;;736955;187;921954;-62
2023/07/08 12:13:03;;;;;;;5.00;2.60;;;;;;;;;;738212;188;716071;-62
2023/07/08 12:15:30;;;;;;;5.60;3.10;;;;;;;;;;741624;189;920045;-63
2023/07/08 12:17:56;;;;;;;5.97;3.30;;;;;;;;;;732477;187;916769;-62
2023/07/08 12:20:22;;;;;;;5.53;2.63;;;;;;;;;;733427;188;921745;-62
2023/07/08 12:22:47;;;;;;;5.20;2.80;;;;;;;;;;739009;189;929555;-62
2023/07/08 12:25:16;;;;;;;8.33;3.00;;;;;;;;;;739068;188;917842;-62
2023/07/08 12:27:40;;;;;;;5.50;3.30;;;;;;;;;;737195;188;825303;-61
2023/07/08 12:30:06;;;;;;;4.50;2.70;;;;;;;;;;738737;188;817168;-62
2023/07/08 12:32:32;;;;;;;4.20;3.40;;;;;;;;;;752185;186;649339;-61
2023/07/08 12:34:58;;;;;;;9.63;3.77;;;;;;;;;;729238;188;905810;-62
2023/07/08 12:37:24;;;;;;;3.80;3.13;;;;;;;;;;722068;192;816120;-61
2023/07/08 12:39:54;;;;;;;5.00;3.80;;;;;;;;;;740926;187;929172;-61
2023/07/08 12:42:19;;;;;;;5.23;3.37;;;;;;;;;;737056;187;923398;-60
2023/07/08 12:44:45;;;;;;;4.50;3.07;;;;;;;;;;740015;187;823684;-65
2023/07/08 12:47:11;;;;;;;6.83;3.77;;;;;;;;;;737037;188;637617;-61
2023/07/08 12:49:37;;;;;;;5.63;3.30;;;;;;;;;;744412;188;622281;-62
2023/07/08 12:52:03;;;;;;;7.90;3.57;;;;;;;;;;740300;188;633896;-62
2023/07/08 12:54:30;;;;;;;5.33;3.30;;;;;;;;;;719517;191;816067;-62
2023/07/08 12:56:55;;;;;;;5.17;2.53;;;;;;;;;;725771;191;813734;-62
2023/07/08 12:59:20;;;;;;;5.15;3.10;;;;;;;;;;717100;191;919109;-61
2023/07/08 13:01:47;;;;;;;5.40;3.33;;;;;;;;;;738655;187;917611;-62
2023/07/08 13:04:12;;;;;;;5.60;3.77;;;;;;;;;;745535;187;917811;-61
2023/07/08 13:06:38;;;;;;;6.70;3.20;;;;;;;;;;736342;187;919306;-62
2023/07/08 13:09:08;;;;;;;5.83;3.77;;;;;;;;;;733084;190;1016382;-61
2023/07/08 13:11:34;;;;;;;7.73;3.53;;;;;;;;;;725974;189;919892;-61
2023/07/08 13:14:01;;;;;;;4.10;3.40;;;;;;;;;;721226;195;917845;-62
2023/07/08 13:16:25;;;;;;;6.03;3.50;;;;;;;;;;731675;189;919526;-61
2023/07/08 13:18:51;;;;;;;5.32;3.62;;;;;;;;;;716663;192;919816;-62
2023/07/08 13:21:17;;;;;;;4.07;2.77;;;;;;;;;;722596;194;919449;-61
2023/07/08 13:23:43;;;;;;;6.17;3.57;;;;;;;;;;738562;187;917381;-61
2023/07/08 13:26:14;;;;;;;4.40;3.20;;;;;;;;;;733220;189;889623;-63
2023/07/08 13:28:39;;;;;;;4.23;2.77;;;;;;;;;;733325;187;920082;-62
2023/07/08 13:31:11;;;;;;;6.70;3.60;;;;;;;;;;742992;188;818946;-61
2023/07/08 13:33:37;;;;;;;6.97;4.03;;;;;;;;;;732086;189;920782;-62
2023/07/08 13:36:03;;;;;;;5.50;3.40;;;;;;;;;;732390;189;920680;-62
2023/07/08 13:38:29;;;;;;;5.10;3.33;;;;;;;;;;739873;186;929549;-61
2023/07/08 13:40:55;;;;;;;5.17;3.03;;;;;;;;;;739593;187;918481;-61
2023/07/08 13:43:22;;;;;;;5.30;3.10;;;;;;;;;;746139;187;918671;-61
2023/07/08 13:45:48;;;;;;;6.20;3.97;;;;;;;;;;737674;189;918155;-62
2023/07/08 13:48:14;;;;;;;5.00;3.63;;;;;;;;;;743729;187;910669;-61
2023/07/08 13:50:41;;;;;;;4.13;3.43;;;;;;;;;;735468;187;919568;-62
2023/07/08 13:53:12;;;;;;;3.40;2.50;;;;;;;;;;730679;189;919619;-62
2023/07/08 13:55:38;;;;;;;5.97;3.23;;;;;;;;;;730593;188;918842;-62
2023/07/08 13:58:06;;;;;;;4.40;3.20;;;;;;;;;;737422;188;919456;-62
2023/07/08 14:00:30;;;;;;;3.97;3.50;;;;;;;;;;739454;187;921204;-59
2023/07/08 14:02:56;;;;;;;5.50;3.33;;;;;;;;;;737110;187;919478;-61
2023/07/08 14:05:21;;;;;;;4.33;3.10;;;;;;;;;;743257;187;818233;-60
2023/07/08 14:07:48;;;;;;;6.93;3.37;;;;;;;;;;740974;187;938716;-61
2023/07/08 14:10:13;;;;;;;8.50;2.87;;;;;;;;;;735251;187;922894;-61
2023/07/08 14:12:39;;;;;;;6.83;2.87;;;;;;;;;;739329;189;917171;-60
2023/07/08 14:15:05;;;;;;;4.60;3.10;;;;;;;;;;734319;189;919813;-61
2023/07/08 14:17:31;;;;;;;4.27;3.30;;;;;;;;;;736505;189;920278;-60
2023/07/08 14:19:58;;;;;;;4.90;3.42;;;;;;;;;;728105;191;918918;-60